Time;durP1;ratioP1;P1;durP2;ratioP2;P2;SDS_P1;SDS_P2;PMS_P1;PMS_P2;Temp;Humidity;BMP_temperature;BMP_pressure;BME280_temperature;BME280_humidity;BME280_pressure;Samples;Min_cycle;Max_cycle;Signal;HPM_P1;HPM_P2
2022/02/21 00:00:14;;;;;;;2.72;0.80;;;9.30;99.90;;;;;;5076634;28;20203;-80
2022/02/21 00:02:43;;;;;;;2.85;0.70;;;9.30;99.90;;;;;;5074206;28;20224;-81
2022/02/21 00:05:10;;;;;;;2.00;1.90;;;9.30;99.90;;;;;;5077237;28;20270;-80
2022/02/21 00:07:37;;;;;;;1.48;1.05;;;9.30;99.90;;;;;;5077259;28;20240;-81
2022/02/21 00:10:05;;;;;;;2.05;1.73;;;9.30;99.90;;;;;;5066909;28;20218;-82
2022/02/21 00:12:33;;;;;;;1.20;1.10;;;9.40;99.90;;;;;;5070940;28;20201;-82
2022/02/21 00:15:00;;;;;;;1.35;0.70;;;9.50;99.90;;;;;;5079673;28;20205;-81
2022/02/21 00:17:26;;;;;;;1.42;0.80;;;9.50;99.90;;;;;;5074879;28;20628;-81
2022/02/21 00:19:53;;;;;;;0.40;0.40;;;9.50;99.90;;;;;;5075033;28;20203;-81
2022/02/21 00:22:20;;;;;;;0.80;0.80;;;9.50;99.90;;;;;;5077777;28;20284;-81
2022/02/21 00:24:47;;;;;;;0.70;0.60;;;9.60;99.90;;;;;;5070189;28;20210;-81
2022/02/21 00:27:13;;;;;;;1.60;0.98;;;9.60;99.90;;;;;;5077505;28;20589;-81
2022/02/21 00:29:41;;;;;;;3.15;1.13;;;9.60;99.90;;;;;;5071701;28;20204;-80
2022/02/21 00:32:09;;;;;;;1.15;0.73;;;9.60;99.90;;;;;;5069018;28;20203;-82
2022/02/21 00:34:36;;;;;;;1.20;1.00;;;9.60;99.90;;;;;;5072525;28;20199;-81
2022/02/21 00:37:03;;;;;;;1.30;1.15;;;9.60;99.90;;;;;;5088704;22;20238;-82
2022/02/21 00:39:29;;;;;;;2.67;1.20;;;9.60;99.90;;;;;;5037786;28;20208;-81
2022/02/21 00:41:56;;;;;;;2.72;0.98;;;9.60;99.90;;;;;;5038666;28;20208;-81
2022/02/21 00:44:23;;;;;;;2.85;0.88;;;9.60;99.90;;;;;;5037763;28;20200;-81
2022/02/21 00:46:51;;;;;;;2.17;1.60;;;9.60;99.90;;;;;;5039046;28;20234;-82
2022/02/21 00:49:18;;;;;;;1.30;0.90;;;9.60;99.90;;;;;;5029240;28;20201;-81
2022/02/21 00:51:45;;;;;;;1.77;0.80;;;9.50;99.90;;;;;;5036663;28;20214;-82
2022/02/21 00:54:11;;;;;;;0.85;0.75;;;9.40;99.90;;;;;;5039749;28;20203;-81
2022/02/21 00:56:38;;;;;;;0.60;0.60;;;9.30;99.90;;;;;;5029709;28;20219;-81
2022/02/21 00:59:05;;;;;;;1.55;1.45;;;9.20;99.90;;;;;;5039614;28;20214;-81
2022/02/21 01:01:32;;;;;;;2.10;1.73;;;9.20;99.90;;;;;;5038210;28;20195;-82
2022/02/21 01:04:00;;;;;;;1.15;0.90;;;9.20;99.90;;;;;;5037321;28;20230;-82
2022/02/21 01:06:29;;;;;;;2.38;1.20;;;9.00;99.90;;;;;;5040970;28;20569;-82
2022/02/21 01:08:56;;;;;;;4.22;1.00;;;9.00;99.90;;;;;;5038339;28;20202;-82
2022/02/21 01:11:24;;;;;;;1.20;0.95;;;9.00;99.90;;;;;;5029288;28;20322;-81
2022/02/21 01:13:51;;;;;;;0.85;0.82;;;8.90;99.90;;;;;;5037631;28;20207;-82
2022/02/21 01:16:18;;;;;;;2.25;1.10;;;8.80;99.90;;;;;;5037730;28;20204;-81
2022/02/21 01:18:44;;;;;;;2.22;0.75;;;8.80;99.90;;;;;;5037837;28;20204;-82
2022/02/21 01:21:13;;;;;;;1.50;0.80;;;8.80;99.90;;;;;;5038314;28;20199;-82
2022/02/21 01:23:40;;;;;;;3.55;1.20;;;8.80;99.90;;;;;;5038526;28;20217;-82
2022/02/21 01:26:07;;;;;;;1.42;1.00;;;8.70;99.90;;;;;;5037800;28;20576;-82
2022/02/21 01:28:33;;;;;;;2.15;1.23;;;8.70;99.90;;;;;;5038385;28;20228;-82
2022/02/21 01:31:00;;;;;;;2.25;0.80;;;8.80;99.90;;;;;;5028764;28;20230;-81
2022/02/21 01:33:28;;;;;;;1.50;0.93;;;8.80;99.90;;;;;;5033831;28;20207;-81
2022/02/21 01:35:55;;;;;;;1.98;0.73;;;8.80;99.90;;;;;;5028542;28;20235;-81
2022/02/21 01:38:23;;;;;;;1.25;1.15;;;8.80;99.90;;;;;;5033331;28;20498;-81
2022/02/21 01:40:50;;;;;;;2.50;1.80;;;8.70;99.90;;;;;;5034672;28;20200;-81
2022/02/21 01:43:17;;;;;;;1.35;1.20;;;8.70;99.90;;;;;;5039020;28;20713;-81
2022/02/21 01:45:44;;;;;;;1.70;1.02;;;8.80;99.90;;;;;;5040000;28;20202;-81
2022/02/21 01:48:11;;;;;;;2.65;1.48;;;8.80;99.90;;;;;;5031426;28;20225;-81
2022/02/21 01:50:38;;;;;;;1.67;0.80;;;8.80;99.90;;;;;;5036869;28;20230;-81
2022/02/21 01:53:05;;;;;;;1.00;1.00;;;8.90;99.90;;;;;;5039199;28;20198;-81
2022/02/21 01:55:33;;;;;;;0.63;0.63;;;8.90;99.90;;;;;;5030136;28;20679;-82
2022/02/21 01:58:00;;;;;;;2.35;1.13;;;8.90;99.90;;;;;;5037180;28;20220;-82
2022/02/21 02:00:26;;;;;;;0.88;0.88;;;8.90;99.90;;;;;;5039129;28;20210;-82
2022/02/21 02:02:53;;;;;;;0.60;0.60;;;9.00;99.90;;;;;;5036461;28;20213;-82
2022/02/21 02:05:22;;;;;;;3.25;1.10;;;8.90;99.90;;;;;;5028247;28;20207;-81
2022/02/21 02:07:49;;;;;;;1.25;0.88;;;8.90;99.90;;;;;;5038336;28;20231;-82
2022/02/21 02:10:16;;;;;;;1.52;0.88;;;9.00;99.90;;;;;;5040074;28;20205;-82
2022/02/21 02:12:44;;;;;;;1.85;0.90;;;9.00;99.90;;;;;;5027354;28;20199;-81
2022/02/21 02:15:13;;;;;;;0.57;0.57;;;9.00;99.90;;;;;;5046577;28;20287;-81
2022/02/21 02:17:39;;;;;;;0.90;0.90;;;9.00;99.90;;;;;;5027511;28;20241;-81
2022/02/21 02:20:07;;;;;;;2.95;0.90;;;9.00;99.90;;;;;;5027460;28;20294;-82
2022/02/21 02:22:37;;;;;;;2.00;0.77;;;9.00;99.90;;;;;;5027705;28;20213;-81
2022/02/21 02:25:05;;;;;;;0.70;0.70;;;9.00;99.90;;;;;;5027349;28;20199;-81
2022/02/21 02:27:32;;;;;;;0.68;0.60;;;9.00;99.90;;;;;;5027988;28;20231;-82
2022/02/21 02:30:01;;;;;;;0.95;0.55;;;9.00;99.90;;;;;;5027854;28;20210;-81
2022/02/21 02:32:29;;;;;;;0.70;0.70;;;9.00;99.90;;;;;;5030168;28;20232;-81
2022/02/21 02:34:56;;;;;;;2.55;1.15;;;9.00;99.90;;;;;;5038160;28;20188;-81
2022/02/21 02:37:25;;;;;;;1.85;1.02;;;9.00;99.90;;;;;;5037792;28;20288;-81
2022/02/21 02:39:54;;;;;;;1.20;1.05;;;8.90;99.90;;;;;;5030102;28;20203;-81
2022/02/21 02:42:22;;;;;;;1.13;1.08;;;8.90;99.90;;;;;;5027415;28;20211;-81
2022/02/21 02:44:48;;;;;;;0.55;0.55;;;8.80;99.90;;;;;;5027873;28;20214;-81
2022/02/21 02:47:16;;;;;;;3.15;1.77;;;8.70;99.90;;;;;;5028124;28;20230;-81
2022/02/21 02:49:43;;;;;;;1.80;0.82;;;8.70;99.90;;;;;;5030901;28;20206;-81
2022/02/21 02:52:10;;;;;;;0.60;0.60;;;8.60;99.90;;;;;;5027912;28;20231;-81
2022/02/21 02:54:37;;;;;;;1.20;0.68;;;8.50;99.90;;;;;;5028326;28;20209;-81
2022/02/21 02:57:06;;;;;;;2.55;0.50;;;8.40;99.90;;;;;;5029720;28;20227;-82
2022/02/21 02:59:33;;;;;;;1.40;0.65;;;8.40;99.90;;;;;;5029224;28;20207;-82
2022/02/21 03:01:59;;;;;;;0.90;0.70;;;8.40;99.90;;;;;;5028921;28;20207;-81
2022/02/21 03:04:26;;;;;;;1.58;0.95;;;8.40;99.90;;;;;;5031911;28;20199;-81
2022/02/21 03:06:53;;;;;;;0.65;0.65;;;8.50;99.90;;;;;;5037092;28;20222;-81
2022/02/21 03:09:20;;;;;;;1.35;0.82;;;8.50;99.90;;;;;;5033850;28;20199;-82
2022/02/21 03:11:47;;;;;;;3.22;0.82;;;8.60;99.90;;;;;;5028362;28;20239;-82
2022/02/21 03:14:15;;;;;;;1.63;0.68;;;8.70;99.90;;;;;;5027707;28;20298;-82
2022/02/21 03:16:42;;;;;;;0.50;0.50;;;8.70;99.90;;;;;;5027718;28;20229;-82
2022/02/21 03:19:09;;;;;;;0.60;0.60;;;8.80;99.90;;;;;;5026701;28;20218;-82
2022/02/21 03:21:36;;;;;;;1.30;0.80;;;8.90;99.90;;;;;;5027584;28;20217;-82
2022/02/21 03:24:03;;;;;;;0.40;0.40;;;8.80;99.90;;;;;;5027978;28;20719;-82
2022/02/21 03:26:30;;;;;;;1.42;0.77;;;8.80;99.90;;;;;;5027448;28;20214;-82
2022/02/21 03:28:56;;;;;;;0.50;0.50;;;8.90;99.90;;;;;;5026924;28;20205;-82
2022/02/21 03:31:24;;;;;;;1.20;0.88;;;8.80;99.90;;;;;;5031852;28;20210;-82
2022/02/21 03:33:51;;;;;;;0.40;0.35;;;8.80;99.90;;;;;;5033437;28;20211;-82
2022/02/21 03:36:18;;;;;;;2.05;0.80;;;8.80;99.90;;;;;;5028538;28;20218;-82
2022/02/21 03:38:45;;;;;;;0.82;0.75;;;8.80;99.90;;;;;;5028749;28;20199;-82
2022/02/21 03:41:11;;;;;;;1.08;0.80;;;8.50;99.90;;;;;;5025943;28;20206;-81
2022/02/21 03:43:39;;;;;;;0.77;0.77;;;8.20;99.90;;;;;;5029185;28;20211;-81
2022/02/21 03:46:06;;;;;;;1.63;0.43;;;8.00;99.90;;;;;;5030306;28;20221;-81
2022/02/21 03:48:34;;;;;;;2.13;1.73;;;7.80;99.90;;;;;;5028507;28;20611;-81
2022/02/21 03:51:01;;;;;;;0.40;0.40;;;7.60;99.90;;;;;;5023241;28;20223;-83
2022/02/21 03:53:28;;;;;;;0.60;0.30;;;6.80;99.90;;;;;;5023815;28;20199;-82
2022/02/21 03:55:55;;;;;;;0.90;0.40;;;5.30;99.90;;;;;;5036216;28;20207;-82
2022/02/21 03:58:22;;;;;;;0.30;0.30;;;4.70;99.90;;;;;;5036450;28;20231;-82
2022/02/21 04:00:49;;;;;;;0.73;0.40;;;4.40;99.90;;;;;;5025229;28;20218;-82
2022/02/21 04:03:16;;;;;;;1.85;0.35;;;4.10;99.90;;;;;;5021187;28;20213;-82
2022/02/21 04:05:44;;;;;;;0.63;0.52;;;3.80;99.90;;;;;;5024203;28;20220;-81
2022/02/21 04:08:11;;;;;;;0.77;0.73;;;3.50;99.90;;;;;;5035293;28;20284;-81
2022/02/21 04:10:37;;;;;;;1.25;0.57;;;3.30;99.90;;;;;;5035672;28;20196;-81
2022/02/21 04:13:04;;;;;;;0.75;0.75;;;3.10;99.90;;;;;;5021586;28;20204;-82
2022/02/21 04:15:31;;;;;;;0.73;0.30;;;2.90;99.90;;;;;;5019488;28;20214;-82
2022/02/21 04:17:58;;;;;;;0.57;0.57;;;2.80;99.90;;;;;;5018629;28;20224;-81
2022/02/21 04:20:27;;;;;;;0.73;0.73;;;2.60;99.90;;;;;;5018611;28;20214;-81
2022/02/21 04:23:00;;;;;;;1.50;0.68;;;2.50;99.90;;;;;;5018174;28;20196;-82
2022/02/21 04:25:27;;;;;;;0.88;0.85;;;2.40;99.90;;;;;;5017675;28;20218;-82
2022/02/21 04:27:55;;;;;;;1.20;0.80;;;2.40;99.90;;;;;;5018224;28;20225;-82
2022/02/21 04:30:24;;;;;;;1.33;1.20;;;2.40;99.90;;;;;;5017816;28;20307;-82
2022/02/21 04:35:46;;;;;;;4.43;1.90;;;2.40;99.90;;;;;;5002034;28;20292;-82
2022/02/21 04:38:17;;;;;;;1.67;0.60;;;2.40;99.90;;;;;;5017019;28;20243;-81
2022/02/21 04:40:47;;;;;;;1.67;0.90;;;2.40;99.90;;;;;;5016950;28;20207;-81
2022/02/21 04:43:14;;;;;;;1.00;0.90;;;2.40;99.90;;;;;;5017416;28;20200;-82
2022/02/21 04:45:44;;;;;;;0.70;0.70;;;2.30;99.90;;;;;;5016139;28;20205;-82
2022/02/21 04:48:13;;;;;;;3.60;1.10;;;2.30;99.90;;;;;;5016848;28;20230;-82
2022/02/21 04:50:40;;;;;;;1.73;1.00;;;2.30;99.90;;;;;;5019758;28;20207;-82
2022/02/21 04:53:11;;;;;;;1.90;1.00;;;2.40;99.90;;;;;;5019828;28;20204;-81
2022/02/21 04:55:39;;;;;;;0.60;0.60;;;2.40;99.90;;;;;;5020716;28;20205;-81
2022/02/21 04:58:05;;;;;;;0.88;0.88;;;2.40;99.90;;;;;;5021100;28;20232;-81
2022/02/21 05:00:32;;;;;;;1.30;0.98;;;2.50;99.90;;;;;;5019813;28;20588;-81
2022/02/21 05:02:59;;;;;;;1.90;0.90;;;2.50;99.90;;;;;;5020534;28;20230;-81
2022/02/21 05:05:26;;;;;;;1.52;0.90;;;2.50;99.90;;;;;;5020388;28;20212;-81
2022/02/21 05:07:53;;;;;;;2.55;1.33;;;2.60;99.90;;;;;;5019807;28;20720;-81
2022/02/21 05:10:20;;;;;;;0.88;0.88;;;2.70;99.90;;;;;;5019998;28;20216;-81
2022/02/21 05:12:48;;;;;;;4.93;0.95;;;2.70;99.90;;;;;;5020507;28;20552;-81
2022/02/21 05:15:17;;;;;;;2.85;1.40;;;2.80;99.90;;;;;;5020455;28;20219;-81
2022/02/21 05:17:44;;;;;;;3.10;1.80;;;2.90;99.90;;;;;;5019604;28;20231;-81
2022/02/21 05:20:12;;;;;;;4.75;1.30;;;3.00;99.90;;;;;;5019942;28;20208;-81
2022/02/21 05:22:39;;;;;;;0.98;0.82;;;3.10;99.90;;;;;;5020512;28;20383;-81
2022/02/21 05:25:08;;;;;;;7.13;2.35;;;3.10;99.90;;;;;;5033924;28;20212;-80
2022/02/21 05:27:36;;;;;;;2.85;0.90;;;3.20;99.90;;;;;;5019604;28;20217;-81
2022/02/21 05:30:05;;;;;;;1.60;1.50;;;3.30;99.90;;;;;;5019384;28;20209;-81
2022/02/21 05:32:31;;;;;;;2.05;1.20;;;3.40;99.90;;;;;;5019491;28;20656;-81
2022/02/21 05:34:58;;;;;;;3.33;2.03;;;3.40;99.90;;;;;;5019073;28;20211;-81
2022/02/21 05:37:27;;;;;;;11.75;1.55;;;3.50;99.90;;;;;;5019001;28;20718;-81
2022/02/21 05:39:54;;;;;;;2.00;1.90;;;3.60;99.90;;;;;;5018734;28;20308;-81
2022/02/21 05:42:21;;;;;;;2.10;1.30;;;3.60;99.90;;;;;;5018368;28;20257;-81
2022/02/21 05:44:48;;;;;;;6.20;4.78;;;3.60;99.90;;;;;;5019104;28;20205;-81
2022/02/21 05:47:16;;;;;;;3.30;1.20;;;3.70;99.90;;;;;;5018655;28;20231;-81
2022/02/21 05:49:42;;;;;;;4.70;1.70;;;3.70;99.90;;;;;;5019247;28;20209;-81
2022/02/21 05:52:09;;;;;;;1.08;1.08;;;3.80;99.90;;;;;;5018105;28;20214;-81
2022/02/21 05:54:36;;;;;;;12.32;2.72;;;3.80;99.90;;;;;;5008754;28;20704;-80
2022/02/21 05:57:03;;;;;;;4.07;1.50;;;3.80;99.90;;;;;;5018557;28;20584;-80
2022/02/21 05:59:30;;;;;;;3.42;1.15;;;3.80;99.90;;;;;;5019046;28;20213;-81
2022/02/21 06:01:57;;;;;;;4.47;1.50;;;3.80;99.90;;;;;;5017788;28;20254;-80
2022/02/21 06:04:25;;;;;;;3.95;2.75;;;3.80;99.90;;;;;;5023510;28;20208;-80
2022/02/21 06:06:52;;;;;;;7.90;2.28;;;3.90;99.90;;;;;;5017541;28;20229;-80
2022/02/21 06:09:19;;;;;;;2.17;1.80;;;3.90;99.90;;;;;;5027904;28;20202;-80
2022/02/21 06:11:47;;;;;;;6.50;2.35;;;4.00;99.90;;;;;;5026766;28;20208;-80
2022/02/21 06:14:13;;;;;;;3.00;1.90;;;4.00;99.90;;;;;;5017949;28;20208;-80
2022/02/21 06:16:44;;;;;;;2.03;0.88;;;4.00;99.90;;;;;;5018752;28;20728;-80
2022/02/21 06:19:19;;;;;;;14.00;2.15;;;4.00;99.90;;;;;;5017793;28;20210;-80
2022/02/21 06:21:57;;;;;;;7.35;1.67;;;4.00;99.90;;;;;;5017305;28;20629;-80
2022/02/21 06:28:28;;;;;;;6.00;2.28;;;4.00;99.90;;;;;;4899603;28;20235;-81
2022/02/21 06:30:57;;;;;;;5.53;4.38;;;4.00;99.90;;;;;;5006282;28;20207;-82
2022/02/21 06:33:33;;;;;;;5.95;1.60;;;4.00;99.90;;;;;;5018031;28;20687;-82
2022/02/21 06:36:04;;;;;;;2.55;1.30;;;3.90;99.90;;;;;;5015898;28;20199;-81
2022/02/21 06:38:33;;;;;;;2.30;1.30;;;3.90;99.90;;;;;;5097030;22;20232;-83
2022/02/21 06:41:00;;;;;;;1.42;1.30;;;3.90;99.90;;;;;;5083588;28;20207;-83
2022/02/21 06:43:27;;;;;;;2.92;1.10;;;3.90;99.90;;;;;;5083760;28;20303;-83
2022/02/21 06:45:54;;;;;;;2.15;1.30;;;3.90;99.90;;;;;;5073184;28;20201;-83
2022/02/21 06:48:22;;;;;;;1.35;1.20;;;3.90;99.90;;;;;;5082608;28;20289;-83
2022/02/21 06:50:49;;;;;;;6.10;1.67;;;3.90;99.90;;;;;;5093302;28;20231;-83
2022/02/21 06:53:15;;;;;;;3.75;1.35;;;3.90;99.90;;;;;;5085909;28;20667;-82
2022/02/21 06:55:43;;;;;;;2.85;1.48;;;4.00;99.90;;;;;;5092525;28;20224;-83
2022/02/21 06:58:11;;;;;;;6.07;1.38;;;4.00;99.90;;;;;;5102082;28;20234;-84
2022/02/21 07:00:38;;;;;;;1.73;1.63;;;4.00;99.90;;;;;;5088079;28;20201;-83
2022/02/21 07:03:05;;;;;;;1.95;1.85;;;4.00;99.90;;;;;;5081006;28;20227;-84
2022/02/21 07:05:32;;;;;;;4.40;1.85;;;4.00;99.90;;;;;;5089511;28;20702;-83
2022/02/21 07:07:59;;;;;;;2.70;1.75;;;4.10;99.90;;;;;;5101111;28;20230;-83
2022/02/21 07:10:25;;;;;;;0.63;0.63;;;4.10;99.90;;;;;;5089562;28;20202;-84
2022/02/21 07:12:53;;;;;;;2.55;2.35;;;4.00;99.90;;;;;;5096393;28;20202;-83
2022/02/21 07:15:20;;;;;;;6.50;1.55;;;4.00;99.90;;;;;;5099248;28;20227;-81
2022/02/21 07:17:47;;;;;;;6.72;2.10;;;3.90;99.90;;;;;;5100061;28;20230;-83
2022/02/21 07:20:15;;;;;;;2.20;1.23;;;3.90;99.90;;;;;;5105402;28;20204;-84
2022/02/21 07:22:43;;;;;;;3.30;1.65;;;3.90;99.90;;;;;;5090785;28;20217;-84
2022/02/21 07:28:06;;;;;;;4.30;1.35;;;3.90;99.90;;;;;;5060551;28;20243;-84
2022/02/21 07:30:33;;;;;;;1.88;1.77;;;3.90;99.90;;;;;;5081927;28;20223;-84
2022/02/21 07:33:00;;;;;;;3.47;1.60;;;3.80;99.90;;;;;;5100086;28;20475;-86
2022/02/21 07:35:28;;;;;;;2.45;1.20;;;3.90;99.90;;;;;;5100108;28;20204;-85
2022/02/21 07:37:55;;;;;;;1.50;1.23;;;3.90;99.90;;;;;;5093259;28;20228;-85
2022/02/21 07:40:22;;;;;;;2.42;1.13;;;4.00;99.90;;;;;;5093811;28;20682;-84
2022/02/21 07:42:50;;;;;;;5.20;2.30;;;4.00;99.90;;;;;;5086526;28;20493;-85
2022/02/21 07:45:19;;;;;;;1.67;1.58;;;4.10;99.90;;;;;;5100803;28;20570;-84
2022/02/21 07:47:48;;;;;;;3.97;1.30;;;4.10;99.90;;;;;;5104498;28;20222;-85
2022/02/21 07:50:15;;;;;;;4.63;0.90;;;4.10;99.90;;;;;;5103467;28;20209;-86
2022/02/21 07:52:43;;;;;;;2.33;1.17;;;4.20;99.90;;;;;;5097415;28;20216;-86
2022/02/21 07:55:10;;;;;;;4.57;1.70;;;4.20;99.90;;;;;;5091850;28;20268;-85
2022/02/21 07:57:39;;;;;;;6.18;1.75;;;4.20;99.90;;;;;;5107150;28;20239;-86
2022/02/21 08:00:07;;;;;;;5.03;3.20;;;4.30;99.90;;;;;;5094172;28;20221;-84
2022/02/21 08:02:36;;;;;;;4.90;2.20;;;4.30;99.90;;;;;;5090779;28;20219;-86
2022/02/21 08:05:03;;;;;;;5.28;2.50;;;4.40;99.90;;;;;;5087416;28;20289;-84
2022/02/21 08:07:30;;;;;;;5.97;2.08;;;4.40;99.90;;;;;;5091049;28;20232;-85
2022/02/21 08:09:56;;;;;;;9.27;2.75;;;4.40;99.90;;;;;;5091297;28;20208;-84
2022/02/21 08:12:23;;;;;;;8.95;2.60;;;4.50;99.90;;;;;;5088791;28;20199;-86
2022/02/21 08:14:50;;;;;;;2.05;1.25;;;4.60;99.90;;;;;;5100748;28;20208;-82
2022/02/21 08:17:17;;;;;;;5.60;1.83;;;4.70;99.90;;;;;;5081240;28;20227;-84
2022/02/21 08:19:45;;;;;;;3.10;1.67;;;4.80;99.90;;;;;;5086725;28;20201;-84
2022/02/21 08:22:12;;;;;;;6.00;1.40;;;4.70;99.90;;;;;;5079251;28;20224;-81
2022/02/21 08:24:38;;;;;;;5.30;1.45;;;4.80;99.90;;;;;;5095158;28;20210;-83
2022/02/21 08:27:05;;;;;;;4.45;1.88;;;4.90;99.90;;;;;;5099549;28;20227;-83
2022/02/21 08:29:33;;;;;;;8.68;1.75;;;5.10;99.90;;;;;;5094176;28;20212;-82
2022/02/21 08:31:59;;;;;;;5.28;2.08;;;5.10;99.90;;;;;;5090305;28;20204;-82
2022/02/21 08:34:33;;;;;;;5.38;1.50;;;5.10;99.90;;;;;;5115643;28;20203;-83
2022/02/21 08:37:01;;;;;;;3.15;2.30;;;5.10;99.90;;;;;;5093969;28;20243;-85
2022/02/21 08:39:30;;;;;;;3.45;1.75;;;5.20;99.90;;;;;;5098853;28;20303;-83
2022/02/21 08:41:57;;;;;;;2.03;1.83;;;5.20;99.90;;;;;;5097382;28;20635;-83
2022/02/21 08:44:25;;;;;;;9.82;2.28;;;5.30;99.90;;;;;;5093315;28;20684;-84
2022/02/21 08:46:52;;;;;;;3.08;1.75;;;5.40;99.90;;;;;;5093228;28;20235;-83
2022/02/21 08:49:18;;;;;;;8.23;1.50;;;5.40;99.90;;;;;;5094740;28;20209;-81
2022/02/21 08:51:45;;;;;;;5.10;1.75;;;5.40;99.90;;;;;;5082293;28;20205;-82
2022/02/21 08:54:13;;;;;;;5.60;1.85;;;5.50;99.90;;;;;;5082453;28;20197;-83
2022/02/21 08:56:40;;;;;;;6.85;2.15;;;5.60;99.90;;;;;;5093878;28;20208;-83
2022/02/21 08:59:07;;;;;;;3.40;2.65;;;5.70;99.90;;;;;;5097850;28;20204;-82
2022/02/21 09:01:34;;;;;;;2.17;1.30;;;5.90;99.90;;;;;;5082034;28;20207;-83
2022/02/21 09:04:01;;;;;;;3.92;1.65;;;5.70;99.90;;;;;;5080850;28;20759;-83
2022/02/21 09:06:28;;;;;;;9.10;2.65;;;5.70;99.90;;;;;;5100537;28;20208;-84
2022/02/21 09:08:55;;;;;;;2.88;1.38;;;5.70;99.90;;;;;;5104588;28;20680;-83
2022/02/21 09:11:23;;;;;;;2.42;2.28;;;5.70;99.90;;;;;;5096715;28;20200;-84
2022/02/21 09:13:50;;;;;;;5.25;2.97;;;5.70;99.90;;;;;;5099872;28;20275;-84
2022/02/21 09:16:19;;;;;;;7.47;1.77;;;5.80;99.90;;;;;;5100111;28;20212;-84
2022/02/21 09:18:46;;;;;;;4.40;2.00;;;5.70;99.90;;;;;;5101030;28;20248;-83
2022/02/21 09:21:13;;;;;;;3.88;1.75;;;5.60;99.90;;;;;;5088219;28;20208;-82
2022/02/21 09:23:39;;;;;;;4.30;2.40;;;5.70;99.90;;;;;;5081400;28;20223;-82
2022/02/21 09:26:06;;;;;;;9.55;2.30;;;5.60;99.90;;;;;;5082586;28;20200;-83
2022/02/21 09:28:34;;;;;;;2.65;1.73;;;5.60;99.90;;;;;;5081579;28;20236;-84
2022/02/21 09:31:01;;;;;;;3.83;2.28;;;5.70;99.90;;;;;;5082687;28;20208;-83
2022/02/21 09:33:28;;;;;;;3.60;1.90;;;5.60;99.90;;;;;;5084460;28;20212;-83
2022/02/21 09:35:54;;;;;;;4.90;1.90;;;5.60;99.90;;;;;;5082961;28;20222;-82
2022/02/21 09:38:21;;;;;;;1.13;0.90;;;5.70;99.90;;;;;;5083211;28;20267;-83
2022/02/21 09:40:50;;;;;;;11.13;3.08;;;5.80;99.90;;;;;;5083564;28;20292;-84
2022/02/21 09:43:20;;;;;;;6.82;1.55;;;5.70;99.90;;;;;;5083511;28;20224;-82
2022/02/21 09:45:48;;;;;;;3.30;2.30;;;5.80;99.90;;;;;;5083453;28;20208;-83
2022/02/21 09:48:16;;;;;;;2.28;1.92;;;5.80;99.90;;;;;;5082976;28;20229;-83
2022/02/21 09:50:43;;;;;;;4.07;1.30;;;5.90;99.90;;;;;;5083684;28;20209;-83
2022/02/21 09:53:10;;;;;;;5.70;1.55;;;5.90;99.90;;;;;;5083828;28;20212;-83
2022/02/21 09:55:37;;;;;;;3.58;1.90;;;6.10;99.90;;;;;;5083101;28;20197;-83
2022/02/21 09:58:05;;;;;;;4.85;1.67;;;6.10;99.90;;;;;;5083023;28;20235;-83
2022/02/21 10:00:32;;;;;;;2.63;1.38;;;6.10;99.90;;;;;;5082831;28;20263;-82
2022/02/21 10:03:00;;;;;;;3.60;1.02;;;6.10;99.90;;;;;;5082793;28;20216;-83
2022/02/21 10:05:28;;;;;;;2.60;1.30;;;6.10;99.90;;;;;;5082681;28;20213;-83
2022/02/21 10:07:56;;;;;;;2.53;1.20;;;6.20;99.90;;;;;;5082402;28;20236;-82
2022/02/21 10:10:25;;;;;;;6.28;2.05;;;6.20;99.60;;;;;;5083258;28;20203;-83
2022/02/21 10:12:54;;;;;;;2.78;1.60;;;6.20;99.70;;;;;;5083217;28;20628;-83
2022/02/21 10:15:24;;;;;;;8.45;2.10;;;6.10;99.80;;;;;;5083458;28;20277;-82
2022/02/21 10:18:08;;;;;;;4.80;2.13;;;6.10;99.90;;;;;;5082946;28;20231;-82
2022/02/21 10:20:52;;;;;;;7.00;1.48;;;6.10;99.60;;;;;;5083106;28;20215;-83
2022/02/21 10:23:19;;;;;;;3.60;1.40;;;6.00;99.50;;;;;;5082386;28;20376;-83
2022/02/21 10:25:54;;;;;;;1.95;0.95;;;6.00;99.30;;;;;;5083169;28;20311;-84
2022/02/21 10:28:28;;;;;;;6.57;2.35;;;6.20;99.20;;;;;;5082547;28;20228;-83
2022/02/21 10:31:11;;;;;;;1.98;1.15;;;6.00;98.20;;;;;;5082188;28;20272;-83
2022/02/21 10:33:38;;;;;;;2.60;2.03;;;6.00;98.00;;;;;;5084694;28;20201;-83
2022/02/21 10:36:27;;;;;;;1.70;1.23;;;6.20;97.70;;;;;;5083834;28;20292;-82
2022/02/21 10:38:54;;;;;;;1.30;1.13;;;6.30;97.50;;;;;;5082447;28;20205;-83
2022/02/21 10:41:22;;;;;;;3.97;1.60;;;6.30;96.60;;;;;;5082673;28;20208;-82
2022/02/21 10:43:49;;;;;;;6.55;1.52;;;6.30;96.00;;;;;;5082950;28;20233;-83
2022/02/21 10:46:17;;;;;;;2.15;1.35;;;6.30;96.40;;;;;;5082967;28;20291;-82
2022/02/21 10:48:46;;;;;;;3.20;1.70;;;6.20;96.40;;;;;;5082866;28;20229;-83
2022/02/21 10:51:15;;;;;;;1.83;1.23;;;6.20;96.40;;;;;;5082978;28;20609;-83
2022/02/21 10:53:44;;;;;;;1.33;1.23;;;6.20;96.20;;;;;;5082349;28;20287;-82
2022/02/21 10:56:12;;;;;;;3.53;1.33;;;6.30;96.60;;;;;;5081867;28;20204;-83
2022/02/21 10:58:40;;;;;;;4.18;1.48;;;6.40;96.00;;;;;;5082374;28;20225;-83
2022/02/21 11:01:10;;;;;;;2.80;1.20;;;6.60;96.10;;;;;;5081734;28;20207;-83
2022/02/21 11:03:37;;;;;;;8.65;1.10;;;6.80;95.30;;;;;;5082038;28;20267;-83
2022/02/21 11:06:05;;;;;;;3.22;1.67;;;6.70;93.30;;;;;;5082526;28;20233;-83
2022/02/21 11:08:33;;;;;;;2.60;1.05;;;6.80;93.80;;;;;;5081807;28;20225;-83
2022/02/21 11:11:03;;;;;;;8.73;2.50;;;7.20;93.60;;;;;;5081760;28;20239;-83
2022/02/21 11:13:32;;;;;;;1.38;0.77;;;7.20;92.50;;;;;;5083351;28;20220;-83
2022/02/21 11:16:01;;;;;;;3.70;1.63;;;7.30;92.80;;;;;;5082963;28;20204;-84
2022/02/21 11:18:28;;;;;;;4.60;1.10;;;7.70;93.20;;;;;;5082344;28;20221;-83
2022/02/21 11:20:55;;;;;;;4.65;1.42;;;7.90;93.20;;;;;;5082186;28;20204;-83
2022/02/21 11:23:22;;;;;;;1.77;1.27;;;7.60;92.90;;;;;;5082406;28;20252;-83
2022/02/21 11:25:55;;;;;;;10.70;1.65;;;7.00;93.60;;;;;;5082514;28;20208;-83
2022/02/21 11:28:24;;;;;;;4.20;1.70;;;6.60;94.20;;;;;;5082340;28;20239;-83
2022/02/21 11:30:53;;;;;;;2.15;1.95;;;6.50;95.00;;;;;;5082921;28;20219;-83
2022/02/21 11:33:20;;;;;;;1.95;0.98;;;6.40;95.30;;;;;;5082450;28;20197;-83
2022/02/21 11:36:05;;;;;;;2.78;1.23;;;6.40;95.80;;;;;;5082447;28;20208;-83
2022/02/21 11:38:33;;;;;;;3.75;1.33;;;6.40;95.60;;;;;;5082916;28;20228;-84
2022/02/21 11:41:04;;;;;;;4.80;1.40;;;6.30;95.20;;;;;;5081683;28;20266;-82
2022/02/21 11:43:33;;;;;;;1.13;1.02;;;6.20;95.70;;;;;;5082865;28;20229;-83
2022/02/21 11:46:05;;;;;;;2.58;2.33;;;6.20;96.50;;;;;;5082116;28;20321;-83
2022/02/21 11:49:06;;;;;;;2.28;1.58;;;5.90;97.40;;;;;;5082347;28;20286;-82
2022/02/21 11:51:34;;;;;;;4.20;1.50;;;5.70;98.40;;;;;;5040046;28;20240;-82
2022/02/21 11:54:38;;;;;;;5.15;1.60;;;5.60;99.10;;;;;;5040075;28;20758;-83
2022/02/21 11:57:11;;;;;;;2.22;1.00;;;5.70;99.40;;;;;;5070610;28;20224;-83
2022/02/21 11:59:38;;;;;;;4.35;1.48;;;5.90;98.50;;;;;;5086525;28;20200;-83
2022/02/21 12:02:10;;;;;;;4.45;2.28;;;6.20;98.30;;;;;;5086765;28;20209;-82
2022/02/21 12:04:48;;;;;;;3.22;1.20;;;6.60;97.00;;;;;;5087297;28;20672;-82
2022/02/21 12:07:23;;;;;;;2.38;1.38;;;7.10;96.00;;;;;;5086325;28;20247;-83
2022/02/21 12:10:24;;;;;;;4.10;2.75;;;7.40;94.40;;;;;;5087317;28;20255;-83
2022/02/21 12:12:54;;;;;;;1.90;1.75;;;7.60;92.30;;;;;;5087181;28;20209;-83
2022/02/21 12:15:23;;;;;;;3.33;1.45;;;7.90;91.00;;;;;;5087295;28;20272;-83
2022/02/21 12:18:02;;;;;;;2.85;1.45;;;7.70;89.80;;;;;;5087101;28;20276;-82
2022/02/21 12:20:39;;;;;;;1.13;0.93;;;7.50;89.70;;;;;;5086883;28;20211;-82
2022/02/21 12:23:16;;;;;;;1.00;0.90;;;7.30;88.70;;;;;;5086674;28;20211;-83
2022/02/21 12:26:04;;;;;;;4.32;1.17;;;7.20;89.60;;;;;;5086698;28;20239;-83
2022/02/21 12:28:33;;;;;;;4.25;0.95;;;7.10;90.50;;;;;;5086116;28;20232;-82
2022/02/21 12:31:00;;;;;;;2.30;1.30;;;7.10;90.40;;;;;;5086595;28;20209;-83
2022/02/21 12:33:28;;;;;;;5.10;2.17;;;6.90;90.60;;;;;;5085804;28;20209;-83
2022/02/21 12:35:57;;;;;;;0.60;0.60;;;7.00;90.80;;;;;;5086681;28;20272;-83
2022/02/21 12:38:25;;;;;;;3.72;1.98;;;6.90;90.00;;;;;;5103506;22;20244;-79
2022/02/21 12:41:02;;;;;;;1.65;0.98;;;6.90;89.70;;;;;;5081239;28;20205;-79
2022/02/21 12:43:48;;;;;;;5.65;1.23;;;6.90;90.40;;;;;;5083691;28;20300;-78
2022/02/21 12:46:15;;;;;;;1.77;1.10;;;7.00;90.90;;;;;;5082864;28;20209;-79
2022/02/21 12:48:43;;;;;;;1.90;1.27;;;6.80;90.70;;;;;;5082750;28;20228;-79
2022/02/21 12:51:18;;;;;;;5.93;1.48;;;6.70;91.10;;;;;;5083522;28;20280;-79
2022/02/21 12:53:51;;;;;;;4.32;1.67;;;6.70;91.70;;;;;;5083272;28;20205;-79
2022/02/21 12:56:18;;;;;;;6.93;1.75;;;6.80;92.40;;;;;;5083585;28;20223;-78
2022/02/21 12:58:50;;;;;;;3.30;1.50;;;6.90;93.20;;;;;;5084180;28;20241;-79
2022/02/21 13:01:19;;;;;;;2.83;1.38;;;6.80;92.90;;;;;;5084700;28;20212;-79
2022/02/21 13:03:51;;;;;;;1.02;0.90;;;6.60;92.60;;;;;;5084035;28;20233;-79
2022/02/21 13:06:18;;;;;;;3.30;1.95;;;6.60;93.10;;;;;;5085043;28;20235;-79
2022/02/21 13:08:44;;;;;;;2.35;1.00;;;6.60;93.70;;;;;;5080821;28;20232;-79
2022/02/21 13:11:11;;;;;;;1.80;0.75;;;6.50;93.60;;;;;;5082262;28;20463;-79
2022/02/21 13:13:46;;;;;;;1.40;1.00;;;6.60;93.80;;;;;;5084649;28;20209;-79